PILOTS ONLINE: 266    ATC ONLINE: 44

MDPC

Punta Cana International Airport

Location

IATA PUJ
City Punta Cana
Country  Dominican Republic
Latitude 18° 34' 2" N
Longitude 68° 21' 48" W
Elevation 47 ft
Type Large Airport

Map

Weather

METAR
2014/09/03 02:00
MDPC 030200Z VRB03KT 9999 -TS FEW018CB FEW020 27/25 Q1016 CB/NE/E
TAF
2014/09/02 18:45
TAF MDPC 021600Z 0218/0318 13010KT 9999 SCT022 PROB30 0220/0300 7000 -TSRA FEW016CB SCT018 SCT080 
      BECMG 0303/0305 07005KT

Runways

09/27 10171 ft / 157 ft

Outbound flights

Callsign Flying to Pilot ATD/STD ETA Aircraft

Inbound flights

Callsign Flying from Pilot ATD ETA Aircraft
BRA1718  MBPV - Providenciales Island
Turks and Caicos Islands
Francisco Ferreira
1067217
01:59 01:59 C210